WetterOnline ( https://www.wetteronline.de )

Wetter aktuell Palingen

Aktuelles Wetter: Lübeck/Blankensee (15m)

6-stündlich | Neueste Meldungen
Ortszeit Temperatur Wetter
Mi, 21.08. 2:00 13.3° C bewölkt
Di, 20.08. 20:00 19.5° C bewölkt
Di, 20.08. 14:00 20.3° C bewölkt
Di, 20.08. 8:00 14.3° C wolkenlos
Di, 20.08. 2:00 11.8° C wolkenlos
Mo, 19.08. 20:00 19.8° C wolkig
Mo, 19.08. 14:00 20.1° C bewölkt
Mo, 19.08. 8:00 15.5° C wolkig
Ortszeit Temperatur Wetter
Mi, 21.08. 3:00 12.0° C wolkenlos
Mi, 21.08. 2:50 12.0° C wolkenlos
Mi, 21.08. 2:40 12.4° C leicht bewölkt
Mi, 21.08. 2:30 12.9° C bedeckt
Mi, 21.08. 2:20 12.9° C bedeckt
Mi, 21.08. 2:10 13.1° C wolkig
Mi, 21.08. 2:00 13.3° C bewölkt
Mi, 21.08. 1:30 13.2° C bedeckt
Mi, 21.08. 1:00 13.1° C bedeckt
Mi, 21.08. 0:30 13.1° C bedeckt
Mi, 21.08. 0:00 13.1° C Nebel
Ortszeit Relative Feuchte Sichtweite
Mi, 21.08. 2:00 97% 20 km
Di, 20.08. 20:00 56% 60 km
Di, 20.08. 14:00 51% >70 km
Di, 20.08. 8:00 78% >70 km
Di, 20.08. 2:00 91% 35 km
Mo, 19.08. 20:00 55% 50 km
Mo, 19.08. 14:00 60% 40 km
Mo, 19.08. 8:00 93% 12 km
Ortszeit Relative Feuchte Sichtweite
Mi, 21.08. 3:00 100% 2.9 km
Mi, 21.08. 2:50 100% -
Mi, 21.08. 2:40 99% -
Mi, 21.08. 2:30 98% 13 km
Mi, 21.08. 2:20 98% -
Mi, 21.08. 2:10 98% -
Mi, 21.08. 2:00 97% 20 km
Mi, 21.08. 1:30 99% 11 km
Mi, 21.08. 1:00 98% 17 km
Mi, 21.08. 0:30 99% 6 km
Mi, 21.08. 0:00 100% 0.3 km
Ortszeit Niederschlagsmenge Niederschlagsart
Mi, 21.08. 2:00 8 l/m2 in 6 Std. Regen
Di, 20.08. 20:00 0.0 l/m2 in 12 Std. -
Di, 20.08. 14:00 0.0 l/m2 in 6 Std. -
Di, 20.08. 8:00 0.0 l/m2 in 12 Std. -
Di, 20.08. 2:00 0.0 l/m2 in 6 Std. -
Mo, 19.08. 20:00 0.0 l/m2 in 12 Std. -
Mo, 19.08. 14:00 0.0 l/m2 in 6 Std. -
Mo, 19.08. 8:00 0.0 l/m2 in 12 Std. -
Ortszeit Niederschlagsmenge Niederschlagsart
Mi, 21.08. 3:00 0.1 l/m2 in 1 Std. -
Mi, 21.08. 2:50 keine Meldung -
Mi, 21.08. 2:40 keine Meldung -
Mi, 21.08. 2:30 0.0 l/m2 in 1 Std. -
Mi, 21.08. 2:20 keine Meldung -
Mi, 21.08. 2:10 keine Meldung -
Mi, 21.08. 2:00 0.1 l/m2 in 1 Std. Regen
Mi, 21.08. 1:30 0.0 l/m2 in 1 Std. -
Mi, 21.08. 1:00 0.0 l/m2 in 1 Std. -
Mi, 21.08. 0:30 0.0 l/m2 in 1 Std. -
Mi, 21.08. 0:00 0.0 l/m2 in 1 Std. -
Ortszeit Stärke Spitze Richtung
km/h Bft. km/h Grad Sektor
Mi, 21.08. 2:00 7 2 22 180° S
Di, 20.08. 20:00 6 1 24 310° NW
Di, 20.08. 14:00 13 3 28 250° W
Di, 20.08. 8:00 7 2 18 180° S
Di, 20.08. 2:00 6 1 11 170° S
Mo, 19.08. 20:00 4 1 36 230° SW
Mo, 19.08. 14:00 11 2 33 230° SW
Mo, 19.08. 8:00 7 2 19 200° S
Ortszeit Stärke Spitze Richtung
km/h Bft. km/h Grad Sektor
Mi, 21.08. 3:00 0 0 7 - -
Mi, 21.08. 2:50 2 1 - 200° S
Mi, 21.08. 2:40 2 1 - 230° SW
Mi, 21.08. 2:30 4 1 7 200° S
Mi, 21.08. 2:20 4 1 - 200° S
Mi, 21.08. 2:10 4 1 - 200° S
Mi, 21.08. 2:00 7 2 11 180° S
Mi, 21.08. 1:30 4 1 11 220° SW
Mi, 21.08. 1:00 4 1 11 200° S
Mi, 21.08. 0:30 4 1 4 230° SW
Mi, 21.08. 0:00 4 1 7 140° SO
Ortszeit Untergrenze Bedeckung Gattung
total tief tief mittel hoch
Mi, 21.08. 2:00 2700 m 8/8 7/8 - - -
Di, 20.08. 20:00 1500 m 7/8 7/8 - - -
Di, 20.08. 14:00 1320 m 7/8 7/8 - - -
Di, 20.08. 8:00 - 0/8 0/8 - - -
Di, 20.08. 2:00 - 0/8 0/8 - - -
Mo, 19.08. 20:00 1500 m 5/8 5/8 - - -
Mo, 19.08. 14:00 1020 m 7/8 7/8 - - -
Mo, 19.08. 8:00 210 m 6/8 6/8 - - -
Ortszeit Bedeckungsgrad in Achtel und Wolkenuntergrenze
Mi, 21.08. 3:00 keine Wolken
Mi, 21.08. 2:50 keine Wolken
Mi, 21.08. 2:40 1(2700m) 2(3600m)
Mi, 21.08. 2:30 5(3000m) 8(3600m)
Mi, 21.08. 2:20 5(3000m) 8(3600m)
Mi, 21.08. 2:10 3(2700m) 7(3300m) 8(3900m)
Mi, 21.08. 2:00 7(2700m) 8(3300m)
Mi, 21.08. 1:30 8(3000m) 8(3900m) 8(3600m)
Mi, 21.08. 1:00 6(3000m) 8(3900m)
Mi, 21.08. 0:30 8(3900m) 8(3900m)
Mi, 21.08. 0:00 2(3000m) 7(3600m)
Ortszeit Luftdruck NN (hPa) Tendenz (hPa in 3 Std.)
Mi, 21.08. 2:00 1025 + 0,9
Di, 20.08. 20:00 1022 + 0,5
Di, 20.08. 14:00 1021 + 0,4
Di, 20.08. 8:00 1020 + 0,8
Di, 20.08. 2:00 1018 + 0,7
Mo, 19.08. 20:00 1016 + 0,8
Mo, 19.08. 14:00 1014 + 1,5
Mo, 19.08. 8:00 1012 + 1,5
Ortszeit Luftdruck NN (hPa) Tendenz (hPa in 3 Std.)
Mi, 21.08. 3:00 1025 + 0,7
Mi, 21.08. 2:50 1025 keine Meldung
Mi, 21.08. 2:40 1025 keine Meldung
Mi, 21.08. 2:30 1025 + 0,9
Mi, 21.08. 2:20 1025 keine Meldung
Mi, 21.08. 2:10 1025 keine Meldung
Mi, 21.08. 2:00 1025 + 0,9
Mi, 21.08. 1:30 1025 + 1,0
Mi, 21.08. 1:00 1025 + 1,1
Mi, 21.08. 0:30 1025 + 1,0
Mi, 21.08. 0:00 1024 + 0,3
Ortszeit Schneehöhe (cm)
Mi, 21.08. 2:00 -
Di, 20.08. 20:00 -
Di, 20.08. 14:00 -
Di, 20.08. 8:00 -
Di, 20.08. 2:00 -
Mo, 19.08. 20:00 -
Mo, 19.08. 14:00 -
Mo, 19.08. 8:00 -
Ortszeit Schneehöhe (cm)
Mi, 21.08. 3:00 -
Mi, 21.08. 2:50 -
Mi, 21.08. 2:40 -
Mi, 21.08. 2:30 -
Mi, 21.08. 2:20 -
Mi, 21.08. 2:10 -
Mi, 21.08. 2:00 -
Mi, 21.08. 1:30 -
Mi, 21.08. 1:00 -
Mi, 21.08. 0:30 -
Mi, 21.08. 0:00 -
Link zu dieser Seite / Seite empfehlen

Das Wetter in ...